Have a Safe July 4th! 

Flight Track Log - Related Links

Times and Time Zones

All times are in EDT time to prevent confusion due to time zone crossing. See the N929SR flight status page for this flight to view local times or setup timezone preferences in your user account.

Time Position Orientation Groundspeed Altitude Reporting Facility
EDT Latitude Longitude Course Direction KTS MPH feet Rate Location/Type
Sun 06:00:01 PM 33.6167 -111.9333 295° West 179 206 2,300  Level Phoenix TRACON
Sun 06:01:19 PM 33.6394 -111.9933 295° West 235 270 5,200 2,400 Climbing Albuquerque Center
Sun 06:02:21 PM 33.6667 -111.9239 65° Northeast 246 283 7,900 2,323 Climbing Albuquerque Center
Sun 06:03:23 PM 33.6164 -111.8572 132° Southeast 271 312 10,000 1,016 Climbing Albuquerque Center
Sun 06:04:25 PM 33.5631 -111.8014 139° Southeast 258 297 10,000  Level Albuquerque Center
Sun 06:05:27 PM 33.5044 -111.7406 139° Southeast 277 319 10,000 585 Level Albuquerque Center
Sun 06:06:28 PM 33.4428 -111.6747 138° Southeast 294 338 11,200 2,919 Climbing Albuquerque Center
Sun 06:08:00 PM 33.3167 -111.4896 90° East  Level FlightAware Approximate
Sun 06:08:32 PM 33.2919 -111.5058 90° East 343 395 19,000  Level Albuquerque Center
Sun 06:09:34 PM 33.2478 -111.3981 116° Southeast 368 423 21,800 2,613 Climbing Albuquerque Center
Sun 06:10:36 PM 33.2508 -111.2617 88° East 411 473 24,400 2,419 Climbing Albuquerque Center
Sun 06:11:38 PM 33.2519 -111.1208 89° East 426 490 26,800 2,439 Climbing Albuquerque Center
Sun 06:12:39 PM 33.2528 -110.9744 90° East 441 507 29,400 2,390 Climbing Albuquerque Center
Sun 06:13:41 PM 33.2544 -110.8244 89° East 451 519 31,700 1,984 Climbing Albuquerque Center
Sun 06:14:43 PM 33.2564 -110.6528 89° East 470 541 33,500 1,548 Climbing Albuquerque Center
Sun 06:15:45 PM 33.2564 -110.4875 90° East 495 570 34,900 1,548 Climbing Albuquerque Center
Sun 06:16:47 PM 33.2564 -110.2803 90° East 520 598 36,700 1,742 Climbing Albuquerque Center
Sun 06:17:49 PM 33.2569 -110.1050 90° East 529 609 38,500 1,854 Climbing Albuquerque Center
Sun 06:18:50 PM 33.2544 -109.9347 91° East 521 600 40,500 1,220 Climbing Albuquerque Center
Sun 06:19:52 PM 33.2547 -109.7706 90° East 505 581 41,000 242 Climbing Albuquerque Center
Sun 06:20:54 PM 33.2544 -109.6042 90° East 502 578 41,000  Level Albuquerque Center
Sun 06:21:56 PM 33.2533 -109.4403 90° East 499 574 41,000  Level Albuquerque Center
Sun 06:22:57 PM 33.2519 -109.2400 90° East 501 577 41,000  Level Albuquerque Center
Sun 06:23:59 PM 33.2517 -109.0717 90° East 504 580 41,000  Level Albuquerque Center
Sun 06:25:01 PM 33.2500 -108.9019 91° East 507 583 41,000  Level Albuquerque Center
Sun 06:26:02 PM 33.2483 -108.7336 91° East 505 581 41,000  Level Albuquerque Center
Sun 06:27:04 PM 33.2461 -108.5669 91° East 503 579 41,000  Level Albuquerque Center
Sun 06:28:06 PM 33.2431 -108.4011 91° East 502 578 41,000  Level Albuquerque Center
Sun 06:29:07 PM 33.2406 -108.2375 91° East 498 573 41,000 -49 Level Albuquerque Center
Sun 06:30:09 PM 33.2372 -108.0656 91° East 499 574 40,900  Descending Albuquerque Center
Sun 06:31:11 PM 33.2336 -107.8989 91° East 501 577 41,000 49 Climbing Albuquerque Center
Sun 06:32:12 PM 33.2303 -107.7322 91° East 501 577 41,000  Level Albuquerque Center
Sun 06:33:14 PM 33.2267 -107.5311 91° East 503 579 41,000  Level Albuquerque Center
Sun 06:34:16 PM 33.2228 -107.3628 92° East 505 581 41,000  Level Albuquerque Center
Sun 06:35:17 PM 33.2194 -107.1947 91° East 505 581 41,000 -49 Level Albuquerque Center
Sun 06:36:19 PM 33.2147 -107.0283 92° East 501 577 40,900  Descending Albuquerque Center
Sun 06:37:21 PM 33.2103 -106.8614 92° East 502 578 41,000 49 Climbing Albuquerque Center
Sun 06:38:22 PM 33.2061 -106.6936 92° East 502 578 41,000  Level Albuquerque Center
Sun 06:39:24 PM 33.2019 -106.5253 92° East 504 580 41,000  Level Albuquerque Center
Sun 06:40:25 PM 33.1969 -106.3578 92° East 505 581 41,000  Level Albuquerque Center
Sun 06:41:27 PM 33.1914 -106.1908 92° East 505 581 41,000  Level Albuquerque Center
Sun 06:42:29 PM 33.1842 -105.9892 92° East 505 581 41,000  Level Albuquerque Center
Sun 06:43:30 PM 33.1786 -105.8222 92° East 504 580 41,000  Level Albuquerque Center
Sun 06:45:00 PM 33.1603 -105.5849 92° East  Level FlightAware Approximate
Sun 06:45:33 PM 33.1650 -105.4697 92° East 502 578 41,000  Level Albuquerque Center
Sun 06:46:35 PM 33.1575 -105.3056 93° East 497 572 41,000  Level Albuquerque Center
Sun 06:47:36 PM 33.1519 -105.1428 92° East 494 568 41,000  Level Albuquerque Center
Sun 06:48:38 PM 33.1456 -104.9681 92° East 492 566 41,000  Level Albuquerque Center
Sun 06:49:40 PM 33.1378 -104.8053 93° East 495 570 41,000  Level Albuquerque Center
Sun 06:50:41 PM 33.1306 -104.6403 93° East 501 577 41,000  Level Albuquerque Center
Sun 06:51:43 PM 33.1236 -104.4633 93° East 503 579 41,000  Level Albuquerque Center
Sun 06:52:44 PM 33.1161 -104.2975 93° East 505 581 41,000  Level Albuquerque Center
Sun 06:53:46 PM 33.1083 -104.1200 93° East 502 578 41,000  Level Albuquerque Center
Sun 06:54:47 PM 33.1011 -103.9547 93° East 502 578 41,000  Level Albuquerque Center
Sun 06:55:49 PM 33.0936 -103.7883 93° East 503 579 41,000  Level Albuquerque Center
Sun 06:56:50 PM 33.0861 -103.6339 93° East 503 579 41,000  Level Albuquerque Center
Sun 06:57:52 PM 33.0761 -103.4675 94° East 502 578 41,000  Level Albuquerque Center
Sun 06:58:53 PM 33.0675 -103.3003 93° East 505 581 41,000  Level Albuquerque Center
Sun 06:59:55 PM 33.0567 -103.1331 94° East 506 582 41,000  Level Albuquerque Center
Sun 07:00:56 PM 33.0461 -102.9328 94° East 504 580 41,000  Level Albuquerque Center
Sun 07:02:16 PM 33.0336 -102.7331 94° East 501 577 41,000  Level Fort Worth Center
Sun 07:03:15 PM 33.0197 -102.5639 96° East 501 577 41,000  Level Fort Worth Center
Sun 07:04:16 PM 33.0086 -102.3750 94° East 505 581 41,000  Level Fort Worth Center
Sun 07:05:16 PM 32.9997 -102.2283 94° East 505 581 41,000  Level Fort Worth Center
Sun 07:06:16 PM 32.9878 -102.0444 94° East 506 582 41,000  Level Fort Worth Center
Sun 07:07:15 PM 32.9772 -101.8756 94° East 508 585 41,000  Level Fort Worth Center
Sun 07:08:16 PM 32.9642 -101.7142 95° East 502 578 41,000  Level Fort Worth Center
Sun 07:09:16 PM 32.9569 -101.5528 93° East 502 578 41,000  Level Fort Worth Center
Sun 07:10:16 PM 32.9456 -101.3864 95° East 497 572 41,000  Level Fort Worth Center
Sun 07:11:16 PM 32.9342 -101.2225 95° East 502 578 41,000  Level Fort Worth Center
Sun 07:12:16 PM 32.9203 -101.0561 96° East 502 578 41,000  Level Fort Worth Center
Sun 07:13:16 PM 32.9083 -100.8900 95° East 502 578 41,000  Level Fort Worth Center
Sun 07:14:16 PM 32.8961 -100.7261 95° East 502 578 41,000  Level Fort Worth Center
Sun 07:15:16 PM 32.8856 -100.5650 94° East 502 578 41,000  Level Fort Worth Center
Sun 07:16:16 PM 32.8728 -100.4014 95° East 497 572 41,000  Level Fort Worth Center
Sun 07:17:16 PM 32.8600 -100.2378 95° East 497 572 41,000  Level Fort Worth Center
Sun 07:18:16 PM 32.8489 -100.0767 95° East 497 572 41,000  Level Fort Worth Center
Sun 07:19:16 PM 32.8336 -99.9106 96° East 502 578 41,000  Level Fort Worth Center
Sun 07:20:16 PM 32.8261 -99.7594 93° East 502 578 41,000  Level Fort Worth Center
Sun 07:21:15 PM 32.8081 -99.6008 98° East 502 578 41,000  Level Fort Worth Center
Sun 07:22:16 PM 32.7919 -99.4372 97° East 497 572 41,000  Level Fort Worth Center
Sun 07:23:16 PM 32.7778 -99.2789 96° East 490 564 41,000  Level Fort Worth Center
Sun 07:24:16 PM 32.7653 -99.1181 95° East 485 558 41,000  Level Fort Worth Center
Sun 07:25:16 PM 32.7508 -98.9547 96° East 485 558 41,000  Level Fort Worth Center
Sun 07:26:16 PM 32.7358 -98.7964 96° East 485 558 41,000  Level Fort Worth Center
Sun 07:27:16 PM 32.7189 -98.6333 97° East 485 558 41,000  Level Fort Worth Center
Sun 07:28:16 PM 32.7078 -98.4750 95° East 485 558 41,000  Level Fort Worth Center
Sun 07:29:16 PM 32.6883 -98.3044 98° East 485 558 41,000  Level Fort Worth Center
Sun 07:30:16 PM 32.6725 -98.1611 97° East 485 558 41,000  Level Fort Worth Center
Sun 07:31:16 PM 32.6567 -97.9858 96° East 480 552 41,000  Level Fort Worth Center
Sun 07:32:16 PM 32.6406 -97.8278 97° East 480 552 41,000  Level Fort Worth Center
Sun 07:33:16 PM 32.6244 -97.6700 97° East 485 558 41,000  Level Fort Worth Center
Sun 07:34:16 PM 32.6078 -97.5097 97° East 485 558 41,000  Level Fort Worth Center
Sun 07:35:16 PM 32.5911 -97.3517 97° East 485 558 41,000  Level Fort Worth Center
Sun 07:36:16 PM 32.5764 -97.1939 96° East 485 558 41,000  Level Fort Worth Center
Sun 07:37:16 PM 32.5594 -97.0364 97° East 485 558 41,000  Level Fort Worth Center
Sun 07:38:16 PM 32.5442 -96.8886 97° East 485 558 41,000  Level Fort Worth Center
Sun 07:39:16 PM 32.5244 -96.7161 98° East 485 558 41,000  Level Fort Worth Center
Sun 07:40:15 PM 32.5111 -96.5708 96° East 485 558 41,000  Level Fort Worth Center
Sun 07:41:16 PM 32.4911 -96.3936 98° East 485 558 41,000  Level Fort Worth Center
Sun 07:42:16 PM 32.4731 -96.2486 98° East 485 558 41,000  Level Fort Worth Center
Sun 07:43:16 PM 32.4547 -96.0717 97° East 490 564 41,000  Level Fort Worth Center
Sun 07:44:16 PM 32.4406 -95.9414 97° East 490 564 41,000  Level Fort Worth Center
Sun 07:45:16 PM 32.4197 -95.7669 98° East 490 564 41,000  Level Fort Worth Center
Sun 07:46:15 PM 32.4028 -95.5975 97° East 495 570 41,000  Level Fort Worth Center
Sun 07:47:16 PM 32.3858 -95.4378 97° East 495 570 41,000  Level Fort Worth Center
Sun 07:48:16 PM 32.3644 -95.2761 99° East 501 577 41,000  Level Fort Worth Center
Sun 07:49:15 PM 32.3447 -95.1142 98° East 501 577 41,000  Level Fort Worth Center
Sun 07:50:16 PM 32.3186 -94.9453 100° East 501 577 41,000  Level Fort Worth Center
Sun 07:51:15 PM 32.2986 -94.7836 98° East 507 583 41,000  Level Fort Worth Center
Sun 07:52:16 PM 32.2783 -94.6194 98° East 507 583 41,000  Level Fort Worth Center
Sun 07:53:16 PM 32.2581 -94.4531 98° East 501 577 41,000  Level Fort Worth Center
Sun 07:54:16 PM 32.2372 -94.2917 99° East 501 577 41,000  Level Fort Worth Center
Sun 07:55:16 PM 32.2186 -94.1278 98° East 501 577 41,000  Level Fort Worth Center
Sun 07:56:16 PM 32.1975 -93.9667 99° East 501 577 41,000  Level Fort Worth Center
Sun 07:57:53 PM 32.1647 -93.7042 98° East 495 570 41,000  Level Houston Center
Sun 07:58:55 PM 32.1403 -93.5261 99° East 499 574 41,000  Level Houston Center
Sun 07:59:57 PM 32.1192 -93.3664 99° East 496 571 41,000  Level Houston Center
Sun 08:00:59 PM 32.0969 -93.2047 99° East 497 572 41,000  Level Houston Center
Sun 08:02:01 PM 32.0747 -93.0464 99° East 492 566 41,000  Level Houston Center
Sun 08:03:02 PM 32.0550 -92.9022 99° East 492 566 41,000  Level Houston Center
Sun 08:04:04 PM 32.0278 -92.7133 100° East 489 563 41,000  Level Houston Center
Sun 08:05:06 PM 32.0058 -92.5528 99° East 492 566 41,000  Level Houston Center
Sun 08:06:08 PM 31.9825 -92.3944 100° East 493 567 41,000  Level Houston Center
Sun 08:07:10 PM 31.9600 -92.2336 99° East 495 570 41,000  Level Houston Center
Sun 08:08:12 PM 31.9364 -92.0739 100° East 496 571 41,000  Level Houston Center
Sun 08:09:13 PM 31.9083 -91.8919 100° East 501 577 41,000  Level Houston Center
Sun 08:10:15 PM 31.8844 -91.7317 100° East 498 573 41,000  Level Houston Center
Sun 08:11:29 PM 31.8556 -91.5381 100° East 500 575 41,000  Level Houston Center
Sun 08:12:31 PM 31.8306 -91.3764 100° East 502 578 41,000  Level Houston Center
Sun 08:13:33 PM 31.8058 -91.2142 100° East 502 578 41,000  Level Houston Center
Sun 08:14:35 PM 31.7800 -91.0486 100° East 505 581 41,000  Level Houston Center
Sun 08:15:37 PM 31.7494 -90.8539 100° East 504 580 41,000  Level Houston Center
Sun 08:16:39 PM 31.7231 -90.6919 101° East 504 580 41,000  Level Houston Center
Sun 08:17:41 PM 31.6975 -90.5292 100° East 508 585 41,000  Level Houston Center
Sun 08:18:43 PM 31.6719 -90.3631 100° East 515 593 41,000  Level Houston Center
Sun 08:19:45 PM 31.6442 -90.1983 101° East 515 593 41,000  Level Houston Center
Sun 08:20:47 PM 31.6178 -90.0328 101° East 515 593 41,000  Level Houston Center
Sun 08:21:49 PM 31.5906 -89.8689 101° East 512 589 41,000  Level Houston Center
Sun 08:22:51 PM 31.5578 -89.6739 101° East 508 585 41,000  Level Houston Center
Sun 08:23:52 PM 31.5350 -89.5328 101° East 507 583 41,000  Level Houston Center
Sun 08:24:54 PM 31.5075 -89.3725 101° East 505 581 41,000  Level Houston Center
Sun 08:25:56 PM 31.4750 -89.1806 101° East 502 578 41,000  Level Houston Center
Sun 08:26:58 PM 31.4478 -89.0186 101° East 504 580 41,000  Level Houston Center
Sun 08:28:00 PM 31.4186 -88.8567 102° East 512 589 41,000  Level Houston Center
Sun 08:29:02 PM 31.3914 -88.6953 101° East 507 583 41,000  Level Houston Center
Sun 08:30:04 PM 31.3636 -88.5358 101° East 501 577 41,000  Level Houston Center
Sun 08:31:06 PM 31.3350 -88.3761 102° East 500 575 41,000  Level Houston Center
Sun 08:32:08 PM 31.3078 -88.2150 101° East 501 577 41,000  Level Houston Center
Sun 08:33:09 PM 31.2792 -88.0531 102° East 502 578 41,000  Level Houston Center
Sun 08:34:11 PM 31.2433 -87.8617 102° East 500 575 41,000  Level Houston Center
Sun 08:35:13 PM 31.2169 -87.7175 102° East 504 580 41,000  Level Houston Center
Sun 08:36:15 PM 31.1833 -87.5392 102° East 507 583 41,000  Level Houston Center
Sun 08:37:17 PM 31.1533 -87.3772 102° East 510 587 41,000  Level Houston Center
Sun 08:37:51 PM 31.1369 -87.2733 100° East 492 566 41,000  Level Jacksonville Center
Sun 08:38:50 PM 31.0792 -87.1250 114° Southeast 492 566 41,000  Level Jacksonville Center
Sun 08:39:51 PM 30.9978 -86.9978 127° Southeast 482 555 41,000  Level Jacksonville Center
Sun 08:40:51 PM 30.9203 -86.8733 126° Southeast 482 555 41,000  Level Jacksonville Center
Sun 08:41:51 PM 30.8408 -86.7442 126° Southeast 488 562 41,000  Level Jacksonville Center
Sun 08:42:51 PM 30.7592 -86.6153 126° Southeast 493 567 41,000  Level Jacksonville Center
Sun 08:43:51 PM 30.6792 -86.4914 127° Southeast 493 567 41,000  Level Jacksonville Center
Sun 08:44:51 PM 30.6014 -86.3631 125° Southeast 488 562 41,000  Level Jacksonville Center
Sun 08:45:51 PM 30.5211 -86.2347 126° Southeast 488 562 41,000  Level Jacksonville Center
Sun 08:46:51 PM 30.4411 -86.1089 126° Southeast 488 562 41,000  Level Jacksonville Center
Sun 08:47:51 PM 30.3628 -85.9811 125° Southeast 488 562 41,000  Level Jacksonville Center
Sun 08:48:51 PM 30.2842 -85.8561 126° Southeast 488 562 41,000  Level Jacksonville Center
Sun 08:49:51 PM 30.2056 -85.7311 126° Southeast 488 562 41,000  Level Jacksonville Center
Sun 08:50:51 PM 30.1206 -85.6158 130° Southeast 488 562 41,000  Level Jacksonville Center
Sun 08:51:51 PM 30.0439 -85.4864 124° Southeast 488 562 41,000  Level Jacksonville Center
Sun 08:52:51 PM 29.9753 -85.3694 124° Southeast 495 570 41,000  Level Jacksonville Center
Sun 08:53:51 PM 29.8942 -85.2453 127° Southeast 488 562 41,000  Level Jacksonville Center
Sun 08:54:51 PM 29.8150 -85.1211 126° Southeast 483 556 41,000  Level Jacksonville Center
Sun 08:55:51 PM 29.7356 -84.9975 126° Southeast 483 556 41,000 -550 Level Jacksonville Center
Sun 08:56:51 PM 29.6542 -84.8714 127° Southeast 483 556 39,900 -1,600 Descending Jacksonville Center
Sun 08:57:51 PM 29.5725 -84.7456 127° Southeast 483 556 37,800 -2,150 Descending Jacksonville Center
Sun 08:58:51 PM 29.4928 -84.6225 127° Southeast 483 556 35,600 -2,150 Descending Jacksonville Center
Sun 08:59:51 PM 29.4150 -84.5017 126° Southeast 483 556 33,500 -2,000 Descending Jacksonville Center
Sun 09:00:51 PM 29.3372 -84.3861 128° Southeast 477 549 31,600 -2,050 Descending Jacksonville Center
Sun 09:01:51 PM 29.2569 -84.2658 127° Southeast 477 549 29,400 -2,200 Descending Jacksonville Center
Sun 09:02:51 PM 29.1747 -84.1411 127° Southeast 477 549 27,200 -2,100 Descending Jacksonville Center
Sun 09:03:51 PM 29.0944 -84.0214 127° Southeast 477 549 25,200 -1,100 Descending Jacksonville Center
Sun 09:04:51 PM 29.0142 -83.8994 127° Southeast 477 549 25,000 -100 Descending Jacksonville Center
Sun 09:05:51 PM 28.9358 -83.7775 126° Southeast 477 549 25,000 -650 Level Jacksonville Center
Sun 09:06:51 PM 28.8550 -83.6583 128° Southeast 477 549 23,700 -1,650 Descending Jacksonville Center
Sun 09:07:51 PM 28.7764 -83.5369 126° Southeast 477 549 21,700 -1,900 Descending Jacksonville Center
Sun 09:08:51 PM 28.6978 -83.4203 128° Southeast 477 549 19,900 -1,915 Descending Jacksonville Center
Sun 09:10:59 PM 28.5333 -83.1667 126° Southeast 431 496 15,700 -1,902 Descending Tampa TRACON
Sun 09:11:35 PM 28.4833 -83.1167 139° Southeast 423 487 14,700 -1,529 Descending Tampa TRACON
Sun 09:12:41 PM 28.4167 -83.0000 123° Southeast 402 463 13,100 -1,650 Descending Tampa TRACON
Sun 09:13:35 PM 28.3333 -82.9500 152° Southeast 339 390 11,400 -1,700 Descending Tampa TRACON
Sun 09:14:41 PM 28.2500 -82.9000 152° Southeast 308 354 9,700 -1,619 Descending Tampa TRACON
Sun 09:15:41 PM 28.1833 -82.8500 147° Southeast 293 337 8,000 -1,350 Descending Tampa TRACON
Sun 09:16:41 PM 28.1167 -82.8000 147° Southeast 295 339 7,000 -500 Descending Tampa TRACON
Sun 09:17:41 PM 28.0500 -82.7500 146° Southeast 290 334 7,000 -500 Level Tampa TRACON
Sun 09:18:41 PM 27.9833 -82.7167 156° South 279 321 6,000 -1,300 Descending Tampa TRACON
Sun 09:19:41 PM 27.9167 -82.6667 146° Southeast 266 306 4,400 -1,550 Descending Tampa TRACON
Sun 09:20:41 PM 27.8667 -82.6167 139° Southeast 272 313 2,900 -1,000 Descending Tampa TRACON
Sun 09:21:35 PM 27.8667 -82.5500 90° East 228 262 2,500 -842 Descending Tampa TRACON
Sun 09:22:35 PM 27.9000 -82.5333 24° Northeast 160 184 1,300 -1,000 Descending Tampa TRACON
Sun 09:23:35 PM 27.9500 -82.5333 360° North 153 176 500 -800 Descending Tampa TRACON
Sun 09:25:00 PM 27.9667 -82.5167 161° South  Level FlightAware Approximate
Sun 09:32:00 PM 27.9755 -82.5332 161° South  Level Estimated
Sun 09:33:00 PM 27.9755 -82.5332 161° South  Level Estimated

Login

Don't have an account? Register now (free) for customized features, flight alerts, and more!